Time;durP1;ratioP1;P1;durP2;ratioP2;P2;SDS_P1;SDS_P2;PMS_P1;PMS_P2;Temp;Humidity;BMP_temperature;BMP_pressure;BME280_temperature;BME280_humidity;BME280_pressure;Samples;Min_cycle;Max_cycle;Signal;HPM_P1;HPM_P2
2021/08/06 00:01:33;;;;;;;4.37;2.50;;;15.90;99.90;;;16.87;100.00;97149.53;5054315;28;20865;-85
2021/08/06 00:04:05;;;;;;;5.53;2.20;;;15.90;99.90;;;16.86;100.00;97153.25;5052289;28;21005;-85
2021/08/06 00:06:39;;;;;;;5.93;2.80;;;15.90;99.90;;;16.85;100.00;97149.00;5051274;28;20980;-85
2021/08/06 00:09:09;;;;;;;4.93;2.63;;;15.90;99.90;;;16.85;100.00;97151.63;5046199;28;20445;-85
2021/08/06 00:11:38;;;;;;;3.93;2.90;;;15.80;99.90;;;16.79;100.00;97149.19;5054725;28;20521;-85
2021/08/06 00:14:08;;;;;;;3.67;2.53;;;15.80;99.90;;;16.80;100.00;97146.28;5057535;28;20530;-84
2021/08/06 00:16:38;;;;;;;5.03;2.60;;;15.80;99.90;;;16.79;100.00;97142.06;5051617;28;20840;-85
2021/08/06 00:19:07;;;;;;;3.50;2.57;;;15.80;99.90;;;16.77;100.00;97141.50;5051456;28;20449;-85
2021/08/06 00:21:35;;;;;;;2.53;2.13;;;15.80;99.90;;;16.75;100.00;97140.16;5042811;28;20515;-85
2021/08/06 00:24:04;;;;;;;7.40;2.30;;;15.70;99.90;;;16.73;100.00;97139.63;5051830;28;20910;-85
2021/08/06 00:26:33;;;;;;;2.70;2.40;;;15.70;99.90;;;16.74;100.00;97143.84;5051142;28;20441;-85
2021/08/06 00:29:01;;;;;;;5.13;2.40;;;15.70;99.90;;;16.76;100.00;97139.13;5051659;28;20502;-85
2021/08/06 00:31:30;;;;;;;3.57;2.33;;;15.70;99.90;;;16.66;100.00;97149.59;5051826;28;20453;-85
2021/08/06 00:34:00;;;;;;;2.50;2.30;;;15.50;99.90;;;16.58;100.00;97143.69;5051529;28;20456;-85
2021/08/06 00:36:29;;;;;;;3.50;2.73;;;15.50;99.90;;;16.60;100.00;97140.81;5049437;28;20964;-86
2021/08/06 00:38:58;;;;;;;3.53;2.73;;;15.60;99.90;;;16.67;100.00;97132.69;5050666;28;20962;-85
2021/08/06 00:41:26;;;;;;;3.90;2.43;;;15.60;99.90;;;16.69;100.00;97134.06;5067277;28;20460;-85
2021/08/06 00:43:55;;;;;;;2.63;2.40;;;15.60;99.90;;;16.69;100.00;97131.41;5050712;28;20844;-85
2021/08/06 00:46:24;;;;;;;6.97;2.20;;;15.60;99.90;;;16.70;100.00;97127.72;5051751;28;20510;-85
2021/08/06 00:48:54;;;;;;;3.87;2.47;;;15.60;99.90;;;16.70;100.00;97124.25;5049279;28;20460;-85
2021/08/06 00:51:24;;;;;;;4.53;2.50;;;15.60;99.90;;;16.62;100.00;97125.53;5051380;28;20511;-85
2021/08/06 00:53:53;;;;;;;3.80;2.63;;;15.50;99.90;;;16.63;100.00;97118.38;5044319;28;20465;-85
2021/08/06 00:56:22;;;;;;;3.40;2.83;;;15.50;99.90;;;16.66;100.00;97123.97;5050591;28;20450;-85
2021/08/06 00:58:50;;;;;;;3.10;2.50;;;15.50;99.90;;;16.69;100.00;97118.22;5050823;28;20495;-85
2021/08/06 01:01:21;;;;;;;2.77;2.53;;;15.60;99.90;;;16.71;100.00;97115.31;5051093;28;20457;-85
2021/08/06 01:04:06;;;;;;;2.70;2.40;;;15.70;99.90;;;16.73;100.00;97116.66;5053780;28;20926;-85
2021/08/06 01:06:45;;;;;;;3.87;2.30;;;15.70;99.90;;;16.70;100.00;97119.78;5049072;28;20433;-85
2021/08/06 01:09:25;;;;;;;4.43;2.60;;;15.80;99.90;;;16.71;100.00;97120.59;5042943;28;20825;-85
2021/08/06 01:12:03;;;;;;;8.57;2.40;;;15.80;99.90;;;16.75;100.00;97124.34;5047732;28;20456;-84
2021/08/06 01:14:34;;;;;;;4.10;2.60;;;15.70;99.90;;;16.78;100.00;97118.53;5050366;28;20499;-85
2021/08/06 01:17:05;;;;;;;11.93;2.93;;;15.80;99.90;;;16.82;100.00;97125.72;5050935;28;20454;-85
2021/08/06 01:19:53;;;;;;;7.03;2.70;;;15.80;99.90;;;16.80;100.00;97119.13;5050808;28;20856;-85
2021/08/06 01:22:34;;;;;;;6.20;3.40;;;15.80;99.90;;;16.80;100.00;97114.59;5050690;28;20485;-85
2021/08/06 01:25:09;;;;;;;8.67;2.63;;;15.80;99.90;;;16.81;100.00;97113.56;5050373;28;20504;-85
2021/08/06 01:27:42;;;;;;;6.97;3.00;;;15.80;99.90;;;16.83;100.00;97113.34;5047941;28;20489;-85
2021/08/06 01:30:14;;;;;;;4.40;2.63;;;15.80;99.90;;;16.88;100.00;97110.72;5050738;28;20515;-84
2021/08/06 01:32:43;;;;;;;4.30;2.80;;;15.80;99.90;;;16.84;100.00;97105.13;5049478;28;20473;-85
2021/08/06 01:35:12;;;;;;;3.40;2.70;;;15.80;99.90;;;16.82;100.00;97106.44;5050489;28;20449;-84
2021/08/06 01:37:40;;;;;;;3.03;2.70;;;15.70;99.90;;;16.83;100.00;97108.03;5049640;28;21039;-85
2021/08/06 01:40:10;;;;;;;3.50;2.70;;;15.70;99.90;;;16.78;100.00;97108.00;5049229;28;21024;-85
2021/08/06 01:42:52;;;;;;;6.50;2.80;;;15.60;99.90;;;16.79;100.00;97112.22;5050036;28;20465;-85
2021/08/06 01:45:26;;;;;;;5.43;2.87;;;15.80;99.90;;;16.78;100.00;97110.63;5051525;28;20501;-85
2021/08/06 01:47:58;;;;;;;6.93;2.70;;;15.80;99.90;;;16.77;100.00;97114.31;5049936;28;21051;-86
2021/08/06 01:50:31;;;;;;;4.83;2.83;;;15.80;99.90;;;16.78;100.00;97106.16;5047653;28;20547;-85
2021/08/06 01:53:04;;;;;;;5.93;2.53;;;15.70;99.90;;;16.80;100.00;97101.41;5042103;28;20857;-85
2021/08/06 01:55:42;;;;;;;3.37;2.80;;;15.80;99.90;;;16.78;100.00;97100.06;5049891;28;20560;-85
2021/08/06 01:58:14;;;;;;;5.90;2.73;;;15.70;99.90;;;16.78;100.00;97106.16;5049731;28;20503;-85
2021/08/06 02:00:43;;;;;;;5.10;2.87;;;15.80;99.90;;;16.79;100.00;97102.47;5049732;28;20511;-85
2021/08/06 02:03:14;;;;;;;4.60;3.03;;;15.80;99.90;;;16.81;100.00;97110.13;5046909;28;20961;-85
2021/08/06 02:05:43;;;;;;;6.20;2.80;;;15.80;99.90;;;16.84;100.00;97101.69;5046219;28;20493;-85
2021/08/06 02:08:12;;;;;;;5.30;2.67;;;15.80;99.90;;;16.85;100.00;97098.03;5049727;28;20453;-85
2021/08/06 02:10:40;;;;;;;4.50;2.50;;;15.80;99.90;;;16.87;100.00;97095.94;5049855;28;20457;-85
2021/08/06 02:13:11;;;;;;;5.90;2.80;;;15.90;99.90;;;16.89;100.00;97091.19;5046315;28;20745;-85
2021/08/06 02:15:42;;;;;;;5.10;3.27;;;16.00;99.90;;;16.92;100.00;97090.69;5057448;28;20480;-85
2021/08/06 02:18:16;;;;;;;3.20;2.90;;;15.90;99.90;;;16.91;100.00;97095.19;5049845;28;20536;-85
2021/08/06 02:20:46;;;;;;;3.20;2.10;;;15.90;99.90;;;16.89;100.00;97083.28;5045047;28;20442;-85
2021/08/06 02:23:15;;;;;;;11.43;2.53;;;15.90;99.90;;;16.88;100.00;97085.13;5049570;28;21218;-85
2021/08/06 02:25:47;;;;;;;4.03;2.80;;;15.80;99.90;;;16.88;100.00;97084.31;5049202;28;20520;-85
2021/08/06 02:28:18;;;;;;;4.50;3.10;;;15.90;99.90;;;16.92;100.00;97080.13;5049027;28;20545;-85
2021/08/06 02:30:49;;;;;;;4.30;3.13;;;15.90;99.90;;;16.94;100.00;97078.03;5049105;28;20812;-85
2021/08/06 02:33:19;;;;;;;4.13;2.60;;;16.00;99.90;;;16.98;100.00;97073.84;5046199;28;20515;-85
2021/08/06 02:35:48;;;;;;;3.83;3.00;;;16.00;99.90;;;16.96;100.00;97073.31;5046903;28;20901;-85
2021/08/06 02:38:21;;;;;;;5.63;2.70;;;16.10;99.90;;;16.96;100.00;97070.66;5047607;28;20523;-85
2021/08/06 02:40:50;;;;;;;9.53;2.83;;;16.00;99.90;;;17.00;100.00;97066.47;5057430;28;20449;-85
2021/08/06 02:43:20;;;;;;;7.13;2.90;;;16.10;99.90;;;16.99;100.00;97064.88;5048390;28;20471;-85
2021/08/06 02:45:51;;;;;;;5.83;3.33;;;16.00;99.90;;;16.97;100.00;97059.06;5048492;28;20558;-85
2021/08/06 02:48:20;;;;;;;3.30;2.77;;;16.00;99.90;;;16.99;100.00;97059.59;5049392;28;20450;-85
2021/08/06 02:50:48;;;;;;;11.10;3.27;;;16.10;99.90;;;17.00;100.00;97056.72;5050165;28;21028;-86
2021/08/06 02:53:17;;;;;;;5.50;3.53;;;16.10;99.90;;;17.04;100.00;97057.00;5047866;28;20530;-86
2021/08/06 02:55:46;;;;;;;4.17;3.07;;;16.10;99.90;;;17.04;100.00;97049.84;5049766;28;20444;-86
2021/08/06 02:58:14;;;;;;;5.10;2.73;;;16.10;99.90;;;17.05;100.00;97048.81;5049147;28;20804;-86
2021/08/06 03:00:44;;;;;;;4.33;2.80;;;16.10;99.90;;;17.07;100.00;97043.28;5055990;28;21007;-86
2021/08/06 03:03:13;;;;;;;4.03;2.77;;;16.10;99.90;;;17.08;100.00;97047.50;5047447;28;20960;-86
2021/08/06 03:05:41;;;;;;;10.03;3.37;;;16.10;99.90;;;17.10;100.00;97046.22;5051950;28;20496;-86
2021/08/06 03:08:10;;;;;;;3.47;2.57;;;16.10;99.90;;;17.07;100.00;97045.94;5056540;28;20449;-85
2021/08/06 03:10:39;;;;;;;8.00;3.00;;;16.10;99.90;;;17.08;100.00;97042.22;5047410;28;20511;-86
2021/08/06 03:13:07;;;;;;;3.93;2.60;;;16.10;99.90;;;17.10;100.00;97035.66;5056007;28;20449;-85
2021/08/06 03:15:36;;;;;;;4.57;3.07;;;16.10;99.90;;;17.09;100.00;97031.41;5054819;28;20543;-86
2021/08/06 03:18:06;;;;;;;4.40;2.77;;;16.20;99.90;;;17.11;100.00;97036.44;5055066;28;20453;-85
2021/08/06 03:20:34;;;;;;;4.57;3.10;;;16.30;99.90;;;17.14;100.00;97029.84;5055582;28;20494;-86
2021/08/06 03:23:03;;;;;;;4.07;3.03;;;16.20;99.90;;;17.16;100.00;97023.25;5050492;28;20453;-86
2021/08/06 03:25:31;;;;;;;3.97;2.97;;;16.30;99.90;;;17.17;100.00;97022.22;5053713;28;20566;-85
2021/08/06 03:28:00;;;;;;;4.43;2.97;;;16.20;99.90;;;17.19;100.00;97021.94;5043595;28;20961;-85
2021/08/06 03:30:29;;;;;;;4.23;2.70;;;16.20;99.90;;;17.21;100.00;97020.66;5047601;28;20441;-85
2021/08/06 03:32:58;;;;;;;6.83;3.20;;;16.30;99.90;;;17.20;100.00;97019.06;5054876;28;20938;-86
2021/08/06 03:35:28;;;;;;;2.73;2.53;;;16.30;99.90;;;17.23;100.00;97017.75;5048367;28;20460;-85
2021/08/06 03:37:56;;;;;;;7.70;2.83;;;16.30;99.90;;;17.23;100.00;97018.56;5056115;28;20438;-85
2021/08/06 03:40:25;;;;;;;4.87;2.87;;;16.30;99.90;;;17.24;100.00;97025.44;5048134;28;20950;-86
2021/08/06 03:42:53;;;;;;;3.73;2.93;;;16.30;99.90;;;17.28;100.00;97015.16;5042726;28;20893;-85
2021/08/06 03:45:22;;;;;;;9.10;2.90;;;16.30;99.90;;;17.31;100.00;97026.00;5041048;28;20510;-82
2021/08/06 03:47:51;;;;;;;10.03;4.00;;;16.30;99.90;;;17.28;100.00;97013.31;5042072;28;20888;-86
2021/08/06 03:50:19;;;;;;;3.90;2.90;;;16.40;99.90;;;17.32;100.00;97017.03;5041839;28;20458;-86
2021/08/06 03:52:49;;;;;;;3.20;2.67;;;16.40;99.90;;;17.33;100.00;97029.19;5036259;28;20469;-85
2021/08/06 03:55:18;;;;;;;3.90;2.67;;;16.40;99.90;;;17.32;100.00;97011.72;5042195;28;20442;-84
2021/08/06 03:57:51;;;;;;;3.33;2.73;;;16.40;99.90;;;17.33;100.00;97008.03;5044095;28;20946;-84
2021/08/06 04:00:20;;;;;;;6.83;2.83;;;16.50;99.90;;;17.36;100.00;97010.19;5038280;28;20449;-85
2021/08/06 04:02:48;;;;;;;4.00;2.40;;;16.50;99.90;;;17.36;100.00;97002.25;5047657;28;20890;-85
2021/08/06 04:05:17;;;;;;;2.53;2.33;;;16.50;99.90;;;17.38;100.00;97004.66;5043365;28;20484;-84
2021/08/06 04:07:49;;;;;;;5.73;2.70;;;16.50;99.90;;;17.39;100.00;97012.31;5045109;28;20441;-85
2021/08/06 04:10:21;;;;;;;9.90;2.87;;;16.50;99.90;;;17.39;100.00;97006.25;5037907;28;21017;-86
2021/08/06 04:12:51;;;;;;;2.63;2.37;;;16.50;99.90;;;17.41;100.00;97014.69;5045095;28;20519;-85
2021/08/06 04:15:20;;;;;;;2.33;2.10;;;16.50;99.90;;;17.41;100.00;97018.16;5047596;28;20488;-85
2021/08/06 04:17:48;;;;;;;4.73;2.50;;;16.50;99.90;;;17.44;100.00;97011.53;5046665;28;20815;-84
2021/08/06 04:20:21;;;;;;;5.20;2.37;;;16.50;99.90;;;17.42;100.00;97011.78;5040111;28;20511;-85
2021/08/06 04:22:51;;;;;;;7.30;2.20;;;16.60;99.90;;;17.40;100.00;97013.91;5047298;28;20507;-85
2021/08/06 04:25:20;;;;;;;21.47;15.27;;;16.50;99.90;;;17.39;100.00;97016.81;5048778;28;20504;-89
2021/08/06 04:27:48;;;;;;;12.77;5.63;;;16.50;99.90;;;17.40;100.00;97023.69;5049165;28;20456;-84
2021/08/06 04:30:19;;;;;;;4.07;2.60;;;16.50;99.90;;;17.42;100.00;97022.38;5050242;28;20826;-84
2021/08/06 04:32:47;;;;;;;3.83;2.57;;;16.50;99.90;;;17.43;100.00;97023.97;5053208;28;20457;-84
2021/08/06 04:35:20;;;;;;;4.80;2.60;;;16.50;99.90;;;17.42;100.00;97021.59;5052163;28;20977;-85
2021/08/06 04:37:53;;;;;;;2.73;2.10;;;16.50;99.90;;;17.44;100.00;97020.28;5058430;28;20514;-85
2021/08/06 04:40:22;;;;;;;3.63;2.40;;;16.50;99.90;;;17.44;100.00;97022.91;5046877;28;20449;-85
2021/08/06 04:42:50;;;;;;;2.63;2.27;;;16.50;99.90;;;17.43;100.00;97023.97;5052755;28;20854;-85
2021/08/06 04:45:19;;;;;;;3.70;2.50;;;16.40;99.90;;;17.44;100.00;97025.56;5054074;28;20786;-85
2021/08/06 04:47:50;;;;;;;5.80;2.67;;;16.50;99.90;;;17.47;100.00;97026.88;5053560;28;20468;-85
2021/08/06 04:50:23;;;;;;;3.27;2.70;;;16.60;99.90;;;17.49;100.00;97024.81;5045145;28;20499;-85
2021/08/06 04:52:53;;;;;;;2.57;2.20;;;16.60;99.90;;;17.48;100.00;97024.00;5051512;28;20929;-85
2021/08/06 04:55:22;;;;;;;5.20;2.63;;;16.60;99.90;;;17.50;100.00;97029.03;5053506;28;20445;-85
2021/08/06 04:57:51;;;;;;;3.00;2.30;;;16.60;99.90;;;17.49;100.00;97024.81;5050132;28;20457;-85
2021/08/06 05:00:21;;;;;;;7.00;2.60;;;16.60;99.90;;;17.53;100.00;97029.31;5053737;28;20976;-85
2021/08/06 05:02:49;;;;;;;6.50;2.80;;;16.60;99.90;;;17.51;100.00;97023.50;5053133;28;20446;-85
2021/08/06 05:05:18;;;;;;;3.60;2.47;;;16.60;99.90;;;17.54;100.00;97027.47;5048702;28;20507;-85
2021/08/06 05:07:51;;;;;;;3.10;2.73;;;16.70;99.90;;;17.54;100.00;97020.34;5060238;28;20449;-85
2021/08/06 05:10:23;;;;;;;2.97;2.77;;;16.70;99.90;;;17.56;100.00;97015.59;5047061;28;20449;-86
2021/08/06 05:12:52;;;;;;;5.80;2.90;;;16.70;99.90;;;17.56;100.00;97017.47;5052845;28;20461;-85
2021/08/06 05:15:22;;;;;;;3.40;2.67;;;16.70;99.90;;;17.59;100.00;97028.34;5055267;28;20808;-85
2021/08/06 05:17:50;;;;;;;6.23;2.93;;;16.70;99.90;;;17.61;100.00;97025.41;5051707;28;20507;-85
2021/08/06 05:20:19;;;;;;;6.27;3.10;;;16.70;99.90;;;17.63;100.00;97028.63;5053105;28;20457;-85
2021/08/06 05:22:48;;;;;;;11.20;2.50;;;16.80;99.90;;;17.65;100.00;97036.28;5058473;28;20825;-85
2021/08/06 05:25:17;;;;;;;5.13;2.50;;;16.80;99.90;;;17.65;100.00;97017.78;5051715;28;20452;-85
2021/08/06 05:27:48;;;;;;;3.93;2.23;;;16.90;99.90;;;17.68;100.00;97027.81;5052008;28;21044;-85
2021/08/06 05:30:20;;;;;;;3.87;2.60;;;16.90;99.90;;;17.67;100.00;97026.25;5053009;28;20473;-86
2021/08/06 05:32:49;;;;;;;3.10;2.63;;;16.90;99.90;;;17.63;100.00;97033.91;5052337;28;20460;-85
2021/08/06 05:35:18;;;;;;;6.90;2.67;;;16.90;99.90;;;17.64;100.00;97032.03;5049273;28;20453;-85
2021/08/06 05:37:47;;;;;;;3.60;2.90;;;16.90;99.90;;;17.68;100.00;97041.06;5052625;28;20441;-85
2021/08/06 05:40:16;;;;;;;3.93;2.80;;;16.90;99.90;;;17.67;100.00;97037.59;5052654;28;20477;-85
2021/08/06 05:42:47;;;;;;;4.50;2.60;;;16.90;99.90;;;17.69;100.00;97046.09;5047788;28;20520;-85
2021/08/06 05:45:15;;;;;;;3.60;3.00;;;16.90;99.90;;;17.67;100.00;97050.81;5052038;28;20452;-86
2021/08/06 05:47:46;;;;;;;7.50;2.97;;;16.90;99.90;;;17.69;100.00;97042.66;5052479;28;20493;-85
2021/08/06 05:50:16;;;;;;;4.60;2.97;;;17.00;99.90;;;17.73;100.00;97049.03;5060283;28;20441;-86
2021/08/06 05:52:46;;;;;;;3.33;2.27;;;17.00;99.90;;;17.75;100.00;97047.72;5052326;28;20796;-85
2021/08/06 05:55:15;;;;;;;4.03;2.83;;;16.90;99.90;;;17.78;100.00;97049.03;5052398;28;20453;-85
2021/08/06 05:57:46;;;;;;;3.47;2.47;;;17.00;99.90;;;17.76;100.00;97038.72;5052083;28;20511;-85
2021/08/06 06:00:17;;;;;;;5.43;2.80;;;17.00;99.90;;;17.78;100.00;97041.09;5042731;28;20454;-85
2021/08/06 06:02:46;;;;;;;2.80;2.20;;;17.10;99.90;;;17.78;100.00;97052.47;5051871;28;20501;-85
2021/08/06 06:05:15;;;;;;;6.30;2.30;;;17.00;99.90;;;17.82;100.00;97052.75;5045072;28;20469;-85
2021/08/06 06:07:44;;;;;;;4.10;2.33;;;17.00;99.90;;;17.80;100.00;97055.69;5048549;28;20501;-85
2021/08/06 06:10:17;;;;;;;2.97;2.50;;;17.10;99.90;;;17.81;100.00;97048.50;5052208;28;20446;-85
2021/08/06 06:12:48;;;;;;;5.80;1.87;;;17.00;99.90;;;17.80;100.00;97060.16;5051619;28;20449;-85
2021/08/06 06:15:17;;;;;;;4.50;2.20;;;17.00;99.90;;;17.83;100.00;97059.66;5052030;28;20535;-85
2021/08/06 06:17:47;;;;;;;2.40;1.90;;;17.00;99.90;;;17.86;100.00;97064.41;5046841;28;20449;-85
2021/08/06 06:20:18;;;;;;;1.93;1.60;;;17.00;99.90;;;17.79;100.00;97062.00;5046889;28;20454;-85
2021/08/06 06:22:47;;;;;;;4.20;2.10;;;17.00;99.90;;;17.81;100.00;97059.09;5051690;28;20445;-85
2021/08/06 06:25:16;;;;;;;6.33;2.00;;;17.00;99.90;;;17.82;100.00;97060.69;5051861;28;20445;-85
2021/08/06 06:27:55;;;;;;;3.33;1.50;;;17.10;99.90;;;17.83;100.00;97071.03;5051381;28;20504;-85
2021/08/06 06:30:26;;;;;;;2.97;1.50;;;17.10;99.90;;;17.75;100.00;97063.56;5051578;28;20452;-85
2021/08/06 06:32:57;;;;;;;2.20;1.80;;;16.80;99.90;;;17.78;100.00;97063.06;5050037;28;20453;-85
2021/08/06 06:35:27;;;;;;;3.00;1.73;;;16.90;99.90;;;17.85;100.00;97063.63;5050888;28;20445;-86
2021/08/06 06:37:56;;;;;;;2.67;1.80;;;17.00;99.90;;;17.91;100.00;97065.22;5047642;28;20449;-85
2021/08/06 06:40:26;;;;;;;3.63;1.80;;;17.00;99.90;;;17.95;100.00;97068.16;5057251;28;20457;-86
2021/08/06 06:42:58;;;;;;;2.37;1.33;;;17.10;99.90;;;17.98;100.00;97068.44;5051241;28;20863;-85
2021/08/06 06:45:27;;;;;;;2.90;1.50;;;17.20;99.90;;;18.05;100.00;97086.72;5056750;28;20453;-85
2021/08/06 06:47:55;;;;;;;1.87;1.37;;;17.30;99.90;;;18.07;100.00;97080.13;5050193;28;20981;-86
2021/08/06 06:50:27;;;;;;;2.70;1.40;;;17.20;99.90;;;18.05;100.00;97087.53;5055842;28;20895;-86
2021/08/06 06:52:56;;;;;;;1.40;1.30;;;17.30;99.90;;;18.04;100.00;97095.72;5045758;28;20465;-85
2021/08/06 06:55:25;;;;;;;3.03;1.43;;;17.30;99.90;;;18.06;100.00;97101.56;5050673;28;20480;-85
2021/08/06 06:57:57;;;;;;;1.50;1.40;;;17.40;99.90;;;18.01;100.00;97094.38;5050734;28;20464;-85
2021/08/06 07:00:27;;;;;;;3.03;1.63;;;17.20;99.90;;;18.05;100.00;97095.47;5051489;28;20503;-85
2021/08/06 07:02:57;;;;;;;2.97;1.60;;;17.30;99.90;;;18.08;100.00;97099.47;5049964;28;20453;-85
2021/08/06 07:05:25;;;;;;;5.20;1.57;;;17.30;99.90;;;18.08;100.00;97102.09;5046246;28;20450;-85
2021/08/06 07:07:54;;;;;;;2.20;1.50;;;17.30;99.90;;;18.08;100.00;97094.16;5049589;28;20906;-85
2021/08/06 07:10:24;;;;;;;4.20;1.80;;;17.40;99.90;;;18.05;100.00;97105.25;5052026;28;20449;-84
2021/08/06 07:12:54;;;;;;;2.80;1.40;;;17.30;99.90;;;18.04;100.00;97101.81;5050678;28;20472;-85
2021/08/06 07:15:25;;;;;;;2.67;1.37;;;17.30;99.90;;;18.01;100.00;97107.59;5044609;28;20491;-85
2021/08/06 07:17:54;;;;;;;4.30;1.57;;;17.30;99.90;;;17.99;100.00;97101.00;5050739;28;20918;-84
2021/08/06 07:20:25;;;;;;;1.87;1.40;;;17.30;99.90;;;17.97;100.00;97103.91;5051104;28;20525;-86
2021/08/06 07:22:56;;;;;;;4.80;1.87;;;17.30;99.90;;;17.99;100.00;97108.91;5045906;28;20461;-85
2021/08/06 07:25:25;;;;;;;2.07;1.47;;;17.30;99.90;;;18.01;100.00;97120.06;5044847;28;20511;-85
2021/08/06 07:27:55;;;;;;;2.23;1.40;;;17.30;99.90;;;18.01;100.00;97126.13;5053566;28;20870;-85
2021/08/06 07:30:26;;;;;;;16.97;1.50;;;17.30;99.90;;;18.01;100.00;97125.34;5048895;28;20457;-85
2021/08/06 07:32:55;;;;;;;4.93;1.27;;;17.30;99.90;;;18.02;100.00;97133.03;5060744;28;20514;-85
2021/08/06 07:35:24;;;;;;;1.60;1.40;;;17.20;99.90;;;18.06;100.00;97130.66;5052806;28;20461;-85
2021/08/06 07:37:52;;;;;;;2.13;1.37;;;17.20;99.90;;;18.09;100.00;97132.78;5050683;28;20814;-85
2021/08/06 07:40:21;;;;;;;11.23;1.70;;;17.30;99.90;;;18.10;100.00;97129.91;5048079;28;20461;-85
2021/08/06 07:42:50;;;;;;;3.97;1.50;;;17.30;99.90;;;18.16;100.00;97133.34;5045866;28;20508;-86
2021/08/06 07:45:20;;;;;;;10.80;1.83;;;17.30;99.90;;;18.17;100.00;97134.97;5050115;28;20449;-85
2021/08/06 07:47:51;;;;;;;8.17;1.47;;;17.40;99.90;;;18.19;100.00;97137.34;5044956;28;20496;-85
2021/08/06 07:50:20;;;;;;;2.37;1.60;;;17.50;99.90;;;18.15;100.00;97131.78;5053095;28;20461;-85
2021/08/06 07:52:49;;;;;;;3.13;1.70;;;17.50;99.90;;;18.15;100.00;97141.56;5044816;28;20472;-86
2021/08/06 07:55:18;;;;;;;5.43;1.73;;;17.30;99.90;;;18.19;100.00;97145.28;5050913;28;20915;-85
2021/08/06 07:57:47;;;;;;;2.23;1.80;;;17.40;99.90;;;18.19;100.00;97151.34;5044684;28;20442;-86
2021/08/06 08:00:17;;;;;;;2.27;1.80;;;17.40;99.90;;;18.20;100.00;97145.03;5040309;28;20449;-85
2021/08/06 08:02:50;;;;;;;4.17;1.97;;;17.40;99.90;;;18.20;100.00;97144.22;5050278;28;20456;-87
2021/08/06 08:05:20;;;;;;;3.10;1.87;;;17.30;99.90;;;18.21;100.00;97143.97;5045749;28;20449;-85
2021/08/06 08:07:49;;;;;;;10.73;1.80;;;17.30;99.90;;;18.28;100.00;97136.59;5054186;28;20492;-85
2021/08/06 08:10:23;;;;;;;3.47;1.87;;;17.40;99.90;;;18.27;100.00;97148.22;5054637;28;20874;-85
2021/08/06 08:13:09;;;;;;;6.37;1.87;;;17.50;99.90;;;18.33;100.00;97149.84;5053928;28;20956;-85
2021/08/06 08:15:38;;;;;;;9.30;1.93;;;17.50;99.90;;;18.38;100.00;97152.53;5049911;28;20496;-86
2021/08/06 08:18:08;;;;;;;2.93;1.60;;;17.50;99.90;;;18.37;100.00;97153.56;5053993;28;20452;-85
2021/08/06 08:20:37;;;;;;;2.43;1.70;;;17.60;99.90;;;18.34;100.00;97151.44;5054707;28;20453;-85
2021/08/06 08:23:06;;;;;;;2.80;1.90;;;17.60;99.90;;;18.24;100.00;97155.88;5061156;28;20506;-85
2021/08/06 08:25:34;;;;;;;6.63;2.23;;;17.50;99.90;;;18.32;100.00;97155.41;5060921;28;20463;-85
2021/08/06 08:28:03;;;;;;;3.90;1.90;;;17.60;99.90;;;18.38;100.00;97163.13;5053750;28;20492;-86
2021/08/06 08:30:32;;;;;;;5.37;2.10;;;17.60;99.90;;;18.44;100.00;97162.06;5052796;28;20991;-85
2021/08/06 08:33:04;;;;;;;6.90;2.13;;;17.60;99.90;;;18.49;100.00;97172.69;5053534;28;20465;-85
2021/08/06 08:35:34;;;;;;;2.47;1.40;;;17.70;99.90;;;18.46;100.00;97165.28;5054089;28;20452;-85
2021/08/06 08:38:03;;;;;;;2.90;1.77;;;17.60;99.90;;;18.46;100.00;97167.13;5060354;28;20456;-85
2021/08/06 08:40:32;;;;;;;5.43;2.40;;;17.70;99.90;;;18.46;100.00;97172.41;5052895;28;20453;-85
2021/08/06 08:43:01;;;;;;;8.03;2.47;;;17.60;99.90;;;18.52;100.00;97166.13;5052739;28;20441;-85
2021/08/06 08:45:30;;;;;;;2.30;1.90;;;17.70;99.90;;;18.53;100.00;97165.84;5053873;28;20449;-85
2021/08/06 08:47:59;;;;;;;2.77;1.70;;;17.80;99.90;;;18.51;100.00;97162.66;5052666;28;20488;-85
2021/08/06 08:50:29;;;;;;;8.70;2.50;;;17.70;99.90;;;18.51;100.00;97167.97;5058398;28;20444;-85
2021/08/06 08:53:05;;;;;;;2.60;1.83;;;17.80;99.90;;;18.52;100.00;97169.56;5053370;28;20480;-85
2021/08/06 08:55:37;;;;;;;5.33;1.83;;;17.70;99.90;;;18.64;100.00;97166.66;5053907;28;20457;-85
2021/08/06 08:58:06;;;;;;;4.17;1.97;;;17.90;99.90;;;18.70;100.00;97167.50;5053084;28;20518;-85
2021/08/06 09:00:35;;;;;;;7.03;2.10;;;18.00;99.90;;;18.65;100.00;97167.47;5053697;28;20454;-86
2021/08/06 09:03:04;;;;;;;5.27;2.03;;;17.80;99.90;;;18.72;100.00;97165.38;5052932;28;21030;-85
2021/08/06 09:05:33;;;;;;;4.63;2.30;;;18.00;99.90;;;18.78;100.00;97167.00;5048188;28;20813;-85
2021/08/06 09:08:19;;;;;;;5.40;1.80;;;18.00;99.90;;;18.84;100.00;97161.47;5043985;28;20562;-85
2021/08/06 09:10:48;;;;;;;3.60;2.20;;;18.10;99.90;;;18.77;100.00;97149.50;5053422;28;20452;-85
2021/08/06 09:13:24;;;;;;;4.83;1.80;;;18.00;99.90;;;18.77;100.00;97152.97;5053271;28;20521;-85
2021/08/06 09:15:56;;;;;;;3.07;1.50;;;18.10;99.90;;;18.72;100.00;97152.94;5052907;28;20931;-85
2021/08/06 09:18:35;;;;;;;3.37;1.53;;;18.00;99.90;;;18.65;100.00;97159.53;5052283;28;20470;-85
2021/08/06 09:21:17;;;;;;;3.23;1.40;;;17.80;99.90;;;18.65;100.00;97162.16;5052242;28;20453;-84
2021/08/06 09:23:50;;;;;;;5.10;1.90;;;17.90;99.90;;;18.67;100.00;97158.22;5051727;28;20512;-85
2021/08/06 09:26:41;;;;;;;3.53;1.47;;;18.00;99.90;;;18.60;100.00;97166.41;5053397;28;20453;-85
2021/08/06 09:29:13;;;;;;;3.03;1.53;;;17.90;99.90;;;18.58;100.00;97162.41;5051910;28;20496;-86
2021/08/06 09:31:45;;;;;;;7.13;1.93;;;17.80;99.90;;;18.62;100.00;97163.50;5060317;28;20440;-85
2021/08/06 09:34:36;;;;;;;4.17;1.70;;;17.80;99.90;;;18.73;100.00;97159.03;5048713;28;20461;-84
2021/08/06 09:37:09;;;;;;;3.90;1.97;;;18.00;99.90;;;18.74;100.00;97160.63;5052875;28;20468;-85
2021/08/06 09:39:43;;;;;;;5.07;1.70;;;18.10;99.90;;;18.59;100.00;97154.22;5046255;28;20461;-85
2021/08/06 09:42:22;;;;;;;4.40;1.83;;;17.90;99.90;;;18.64;100.00;97160.59;5051121;28;20445;-85
2021/08/06 09:45:01;;;;;;;2.10;1.40;;;17.90;99.90;;;18.67;100.00;97160.09;5052464;28;20449;-85
2021/08/06 09:47:33;;;;;;;6.00;1.60;;;18.00;99.90;;;18.62;100.00;97170.66;5059435;28;20449;-85
2021/08/06 09:50:06;;;;;;;4.10;2.07;;;18.00;99.90;;;18.53;100.00;97175.66;5052081;28;20912;-85
2021/08/06 09:52:37;;;;;;;2.60;1.47;;;17.80;99.90;;;18.53;100.00;97186.25;5050227;28;20548;-85
2021/08/06 09:55:31;;;;;;;5.37;1.80;;;17.80;99.90;;;18.44;100.00;97183.25;5052532;28;20504;-86
2021/08/06 09:58:03;;;;;;;5.23;1.50;;;17.70;99.90;;;18.47;100.00;97176.63;5049602;28;21134;-86
2021/08/06 10:00:38;;;;;;;4.07;1.53;;;17.70;99.90;;;18.47;100.00;97181.94;5061221;28;20452;-87
2021/08/06 10:03:07;;;;;;;3.00;1.77;;;17.60;99.90;;;18.57;100.00;97182.81;5051481;28;20457;-87
2021/08/06 10:05:37;;;;;;;6.53;1.83;;;17.90;99.90;;;18.58;100.00;97176.47;5047414;28;20815;-87
2021/08/06 10:08:06;;;;;;;3.80;1.83;;;17.80;99.90;;;18.59;100.00;97169.31;5045895;28;20453;-87
2021/08/06 10:10:37;;;;;;;3.20;1.77;;;17.70;99.90;;;18.65;100.00;97186.00;5052594;28;20449;-86
2021/08/06 10:13:07;;;;;;;2.47;1.30;;;17.80;99.90;;;18.69;100.00;97164.06;5052694;28;20472;-86
2021/08/06 10:15:35;;;;;;;6.77;2.10;;;17.90;99.90;;;18.68;100.00;97175.69;5050770;28;21066;-85
2021/08/06 10:18:05;;;;;;;4.17;1.70;;;17.90;99.90;;;18.79;100.00;97174.69;5058781;28;20445;-86
2021/08/06 10:20:34;;;;;;;4.43;1.47;;;18.00;99.90;;;18.75;100.00;97170.16;5051824;28;20472;-86
2021/08/06 10:23:04;;;;;;;3.10;1.53;;;17.90;99.90;;;18.80;100.00;97172.81;5052056;28;20543;-87
2021/08/06 10:25:35;;;;;;;4.37;1.90;;;18.00;99.90;;;18.85;100.00;97180.78;5051893;28;20441;-86
2021/08/06 10:28:06;;;;;;;5.53;1.60;;;18.10;99.90;;;18.80;100.00;97170.97;5050814;28;20798;-84